Time;durP1;ratioP1;P1;durP2;ratioP2;P2;SDS_P1;SDS_P2;PMS_P1;PMS_P2;Temp;Humidity;BMP_temperature;BMP_pressure;BME280_temperature;BME280_humidity;BME280_pressure;Samples;Min_cycle;Max_cycle;Signal;HPM_P1;HPM_P2
2023/08/06 00:02:18;;;;;;;7.22;5.25;;;17.00;99.90;;;;;;6211488;23;20003;-84
2023/08/06 00:04:44;;;;;;;7.05;5.90;;;16.90;99.90;;;;;;6212103;23;20004;-83
2023/08/06 00:07:09;;;;;;;5.97;5.15;;;17.00;99.90;;;;;;6211490;23;20036;-84
2023/08/06 00:09:35;;;;;;;7.15;5.85;;;17.00;99.90;;;;;;6211643;23;20008;-84
2023/08/06 00:12:00;;;;;;;6.18;5.60;;;17.00;99.90;;;;;;6211007;23;20441;-84
2023/08/06 00:14:26;;;;;;;7.18;6.10;;;17.00;99.90;;;;;;6211272;23;20004;-84
2023/08/06 00:16:52;;;;;;;6.70;5.97;;;17.00;99.90;;;;;;6211372;23;20028;-83
2023/08/06 00:19:17;;;;;;;6.53;5.47;;;17.00;99.90;;;;;;6211073;23;19997;-84
2023/08/06 00:21:43;;;;;;;5.75;5.22;;;17.10;99.90;;;;;;6184891;23;20059;-83
2023/08/06 00:24:08;;;;;;;7.40;6.75;;;17.10;99.90;;;;;;6211709;23;20414;-83
2023/08/06 00:26:34;;;;;;;8.93;6.28;;;17.00;99.90;;;;;;6210901;23;20001;-84
2023/08/06 00:28:59;;;;;;;7.60;6.95;;;17.00;99.90;;;;;;6211368;23;20379;-85
2023/08/06 00:31:25;;;;;;;9.30;6.47;;;17.00;99.90;;;;;;6211087;23;20086;-84
2023/08/06 00:33:50;;;;;;;7.88;7.07;;;17.00;99.90;;;;;;6211752;23;20004;-83
2023/08/06 00:36:16;;;;;;;6.47;5.72;;;17.00;99.90;;;;;;6211101;23;20011;-83
2023/08/06 00:38:41;;;;;;;7.03;6.18;;;17.00;99.90;;;;;;6211703;23;20088;-83
2023/08/06 00:41:07;;;;;;;7.88;6.55;;;17.00;99.90;;;;;;6210721;23;20004;-83
2023/08/06 00:43:32;;;;;;;8.57;6.68;;;17.00;99.90;;;;;;6211517;23;20418;-83
2023/08/06 00:45:58;;;;;;;9.20;7.25;;;16.90;99.90;;;;;;6211582;23;20000;-83
2023/08/06 00:48:24;;;;;;;7.00;6.28;;;16.90;99.90;;;;;;6211268;23;20055;-85
2023/08/06 00:50:49;;;;;;;9.80;8.05;;;16.90;99.90;;;;;;6211744;23;20326;-83
2023/08/06 00:53:15;;;;;;;10.32;9.15;;;16.90;99.90;;;;;;6211520;23;20028;-83
2023/08/06 00:55:44;;;;;;;13.13;9.98;;;16.80;99.90;;;;;;6213086;23;20075;-83
2023/08/06 00:58:10;;;;;;;11.73;10.20;;;16.80;99.90;;;;;;6213360;23;20005;-84
2023/08/06 01:00:36;;;;;;;10.43;9.32;;;16.80;99.90;;;;;;6213539;23;20019;-83
2023/08/06 01:03:01;;;;;;;12.10;11.00;;;16.80;99.90;;;;;;6213579;23;20152;-84
2023/08/06 01:05:27;;;;;;;15.98;11.45;;;16.80;99.90;;;;;;6213304;23;20049;-84
2023/08/06 01:08:16;;;;;;;10.48;9.48;;;16.80;99.90;;;;;;6213198;23;20004;-84
2023/08/06 01:11:00;;;;;;;12.68;10.25;;;16.80;99.90;;;;;;6213491;23;20024;-84
2023/08/06 01:13:46;;;;;;;12.50;10.75;;;16.80;99.90;;;;;;6213177;23;20111;-82
2023/08/06 01:16:16;;;;;;;14.30;11.63;;;16.80;99.90;;;;;;6213197;23;20000;-84
2023/08/06 01:18:45;;;;;;;12.25;11.00;;;16.80;99.90;;;;;;6213296;23;20004;-83
2023/08/06 01:21:12;;;;;;;12.50;10.18;;;16.80;99.90;;;;;;6212963;23;20005;-84
2023/08/06 01:23:38;;;;;;;10.75;9.73;;;16.80;99.90;;;;;;6212501;23;19997;-83
2023/08/06 01:26:35;;;;;;;9.98;9.00;;;16.70;99.90;;;;;;6213075;23;20006;-84
2023/08/06 01:29:08;;;;;;;8.30;7.50;;;16.80;99.90;;;;;;6213316;23;20080;-83
2023/08/06 01:31:38;;;;;;;10.60;8.02;;;16.70;99.90;;;;;;6213010;23;20013;-83
2023/08/06 01:34:09;;;;;;;7.72;7.03;;;16.70;99.90;;;;;;6212820;23;20008;-83
2023/08/06 01:36:36;;;;;;;9.18;7.78;;;16.80;99.90;;;;;;6213282;23;20011;-83
2023/08/06 01:39:02;;;;;;;8.40;6.28;;;16.80;99.90;;;;;;6212539;23;20008;-83
2023/08/06 01:41:27;;;;;;;8.02;7.22;;;16.80;99.90;;;;;;6214137;23;20019;-84
2023/08/06 01:43:53;;;;;;;9.50;8.50;;;16.80;99.90;;;;;;6214780;23;20009;-84
2023/08/06 01:46:18;;;;;;;11.20;7.75;;;16.70;99.90;;;;;;6212339;23;20080;-84
2023/08/06 01:48:44;;;;;;;10.48;9.38;;;16.80;99.90;;;;;;6186914;23;20004;-84
2023/08/06 01:51:09;;;;;;;8.80;7.90;;;16.80;99.90;;;;;;6213298;23;20014;-83
2023/08/06 01:53:35;;;;;;;10.82;9.35;;;16.80;99.90;;;;;;6212327;23;20442;-84
2023/08/06 01:56:00;;;;;;;10.55;9.52;;;16.80;99.90;;;;;;6212896;23;20004;-84
2023/08/06 01:58:26;;;;;;;12.18;9.63;;;16.70;99.90;;;;;;6212519;23;20028;-84
2023/08/06 02:00:52;;;;;;;12.30;10.13;;;16.70;99.90;;;;;;6213065;23;20338;-84
2023/08/06 02:03:17;;;;;;;13.70;11.43;;;16.70;99.90;;;;;;6185811;23;20074;-84
2023/08/06 02:05:43;;;;;;;11.27;10.13;;;16.70;99.90;;;;;;6185897;23;20004;-83
2023/08/06 02:08:08;;;;;;;12.25;10.77;;;16.70;99.90;;;;;;6185808;23;20012;-85
2023/08/06 02:10:34;;;;;;;13.30;11.90;;;16.70;99.90;;;;;;6212888;23;20477;-83
2023/08/06 02:12:59;;;;;;;12.93;11.60;;;16.70;99.90;;;;;;6212396;23;20031;-83
2023/08/06 02:15:25;;;;;;;13.10;11.90;;;16.70;99.90;;;;;;6212292;23;20419;-83
2023/08/06 02:17:51;;;;;;;13.30;11.98;;;16.70;99.90;;;;;;6213536;23;20038;-83
2023/08/06 02:20:16;;;;;;;18.67;14.10;;;16.70;99.90;;;;;;6212811;23;20028;-83
2023/08/06 02:22:42;;;;;;;14.77;13.13;;;16.70;99.90;;;;;;6212984;23;20399;-84
2023/08/06 02:25:08;;;;;;;15.43;13.82;;;16.70;99.90;;;;;;6212684;23;20498;-83
2023/08/06 02:27:33;;;;;;;13.73;12.13;;;16.70;99.90;;;;;;6212999;23;20017;-83
2023/08/06 02:29:59;;;;;;;15.20;13.13;;;16.70;99.90;;;;;;6212611;23;20001;-83
2023/08/06 02:32:24;;;;;;;15.20;13.68;;;16.70;99.90;;;;;;6185701;23;20000;-83
2023/08/06 02:34:50;;;;;;;15.18;13.60;;;16.60;99.90;;;;;;6212696;23;20011;-83
2023/08/06 02:37:15;;;;;;;13.45;12.13;;;16.60;99.90;;;;;;6186228;23;20035;-84
2023/08/06 02:39:41;;;;;;;15.77;11.20;;;16.60;99.90;;;;;;6213002;23;20008;-83
2023/08/06 02:42:10;;;;;;;13.15;11.85;;;16.60;99.90;;;;;;6186089;23;20007;-82
2023/08/06 02:44:35;;;;;;;15.07;12.90;;;16.60;99.90;;;;;;6212849;23;19996;-83
2023/08/06 02:47:01;;;;;;;13.90;12.43;;;16.70;99.90;;;;;;6186467;23;20004;-83
2023/08/06 02:49:27;;;;;;;14.73;13.32;;;16.70;99.90;;;;;;6212142;23;20004;-83
2023/08/06 02:51:53;;;;;;;14.98;13.23;;;16.70;99.90;;;;;;6213227;23;20092;-83
2023/08/06 02:54:19;;;;;;;16.88;14.13;;;16.70;99.90;;;;;;6212134;23;20012;-83
2023/08/06 02:56:45;;;;;;;14.95;13.35;;;16.70;99.90;;;;;;6213052;23;20004;-83
2023/08/06 02:59:11;;;;;;;14.30;12.77;;;16.70;99.90;;;;;;6212467;23;20314;-83
2023/08/06 03:01:36;;;;;;;16.77;13.63;;;16.70;99.90;;;;;;6212692;23;20007;-83
2023/08/06 03:04:02;;;;;;;16.40;14.70;;;16.70;99.90;;;;;;6211834;23;20000;-82
2023/08/06 03:06:28;;;;;;;17.15;15.55;;;16.70;99.90;;;;;;6212685;23;20032;-82
2023/08/06 03:08:53;;;;;;;14.90;13.40;;;16.70;99.90;;;;;;6212884;23;20005;-83
2023/08/06 03:11:19;;;;;;;15.73;14.13;;;16.70;99.90;;;;;;6212066;23;20066;-83
2023/08/06 03:13:44;;;;;;;14.70;13.20;;;16.70;99.90;;;;;;6212909;23;20005;-83
2023/08/06 03:16:10;;;;;;;16.13;14.63;;;16.70;99.90;;;;;;6211977;23;20000;-83
2023/08/06 03:18:36;;;;;;;14.25;12.68;;;16.70;99.90;;;;;;6211759;23;20552;-83
2023/08/06 03:21:01;;;;;;;15.18;13.68;;;16.70;99.90;;;;;;6212521;23;20008;-84
2023/08/06 03:23:27;;;;;;;13.55;12.10;;;16.70;99.90;;;;;;6212455;23;20414;-84
2023/08/06 03:25:53;;;;;;;14.95;12.85;;;16.80;99.90;;;;;;6212616;23;20335;-83
2023/08/06 03:28:18;;;;;;;15.88;14.27;;;16.70;99.90;;;;;;6211836;23;20032;-82
2023/08/06 03:30:44;;;;;;;14.32;12.82;;;16.70;99.90;;;;;;6212617;23;20439;-82
2023/08/06 03:33:09;;;;;;;15.55;13.68;;;16.60;99.90;;;;;;6211612;23;20058;-83
2023/08/06 03:35:35;;;;;;;17.42;13.95;;;16.70;99.90;;;;;;6212325;23;20000;-82
2023/08/06 03:38:01;;;;;;;14.80;12.98;;;16.80;99.90;;;;;;6212350;23;20011;-83
2023/08/06 03:40:26;;;;;;;16.45;12.95;;;16.70;99.90;;;;;;6212134;23;20373;-83
2023/08/06 03:42:52;;;;;;;15.15;13.65;;;16.70;99.90;;;;;;6212489;23;20373;-83
2023/08/06 03:45:17;;;;;;;15.30;13.70;;;16.70;99.90;;;;;;6185278;23;20422;-83
2023/08/06 03:47:43;;;;;;;16.42;14.07;;;16.80;99.90;;;;;;6211906;23;20005;-83
2023/08/06 03:50:09;;;;;;;14.98;13.45;;;16.80;99.90;;;;;;6212088;23;20632;-83
2023/08/06 03:52:34;;;;;;;16.15;12.57;;;16.80;99.90;;;;;;6185606;23;20031;-83
2023/08/06 03:55:00;;;;;;;14.75;13.35;;;16.80;99.90;;;;;;6212099;23;20074;-83
2023/08/06 03:57:25;;;;;;;14.57;13.10;;;16.80;99.90;;;;;;6211613;23;20005;-83
2023/08/06 03:59:51;;;;;;;14.60;13.10;;;16.80;99.90;;;;;;6212437;23;20005;-83
2023/08/06 04:02:16;;;;;;;13.40;12.10;;;16.80;99.90;;;;;;6211102;23;20011;-83
2023/08/06 04:04:42;;;;;;;14.73;13.10;;;16.80;99.90;;;;;;6212445;23;20423;-83
2023/08/06 04:07:08;;;;;;;17.25;14.07;;;16.80;99.90;;;;;;6211942;23;20024;-84
2023/08/06 04:09:33;;;;;;;14.30;12.98;;;16.90;99.90;;;;;;6212376;23;20084;-83
2023/08/06 04:12:01;;;;;;;15.45;13.93;;;16.80;99.90;;;;;;6212137;23;20326;-83
2023/08/06 04:14:27;;;;;;;17.08;14.27;;;16.80;99.90;;;;;;6212043;23;20077;-83
2023/08/06 04:16:53;;;;;;;16.60;13.88;;;16.80;99.90;;;;;;6211527;23;20229;-83
2023/08/06 04:19:18;;;;;;;14.98;13.02;;;16.90;99.90;;;;;;6211640;23;20016;-83
2023/08/06 04:21:44;;;;;;;15.13;13.48;;;16.80;99.90;;;;;;6185662;23;20005;-83
2023/08/06 04:24:10;;;;;;;16.70;14.90;;;16.80;99.90;;;;;;6212077;23;20011;-83
2023/08/06 04:26:35;;;;;;;15.52;12.85;;;16.90;99.90;;;;;;6211836;23;20001;-83
2023/08/06 04:29:01;;;;;;;12.93;11.52;;;16.80;99.90;;;;;;6212166;23;20011;-83
2023/08/06 04:31:26;;;;;;;15.38;12.82;;;16.90;99.90;;;;;;6211174;23;20032;-83
2023/08/06 04:33:52;;;;;;;13.75;12.40;;;16.90;99.90;;;;;;6212298;23;20059;-83
2023/08/06 04:36:17;;;;;;;13.20;11.90;;;16.90;99.90;;;;;;6184675;23;20303;-83
2023/08/06 04:38:45;;;;;;;14.50;13.00;;;16.90;99.90;;;;;;6212306;23;20036;-84
2023/08/06 04:41:11;;;;;;;13.90;12.60;;;16.90;99.90;;;;;;6211386;23;20003;-83
2023/08/06 04:43:37;;;;;;;13.93;11.73;;;16.90;99.90;;;;;;6185510;23;20008;-84
2023/08/06 04:46:02;;;;;;;13.65;12.25;;;17.00;99.90;;;;;;6211154;23;20423;-83
2023/08/06 04:48:28;;;;;;;12.45;10.98;;;17.00;99.90;;;;;;6212147;23;20370;-83
2023/08/06 04:50:54;;;;;;;11.90;10.70;;;17.00;99.90;;;;;;6212037;23;20013;-83
2023/08/06 04:53:20;;;;;;;15.05;12.90;;;17.00;99.90;;;;;;6211334;23;20428;-84
2023/08/06 04:55:46;;;;;;;14.75;13.13;;;17.10;99.90;;;;;;6211841;23;20004;-83
2023/08/06 04:58:13;;;;;;;13.68;11.18;;;17.10;99.90;;;;;;6211101;23;20036;-83
2023/08/06 05:00:38;;;;;;;13.18;11.77;;;17.10;99.90;;;;;;6209915;23;20326;-83
2023/08/06 05:03:07;;;;;;;13.38;12.07;;;17.10;99.90;;;;;;6210133;23;20076;-84
2023/08/06 05:05:32;;;;;;;14.18;12.68;;;17.10;99.90;;;;;;6211456;23;20358;-83
2023/08/06 05:07:58;;;;;;;17.23;13.90;;;17.10;99.90;;;;;;6211904;23;20028;-84
2023/08/06 05:10:27;;;;;;;14.10;12.70;;;17.10;99.90;;;;;;6211835;23;20374;-84
2023/08/06 05:12:53;;;;;;;13.68;12.32;;;17.20;99.90;;;;;;6212230;23;20185;-84
2023/08/06 05:15:19;;;;;;;14.63;13.20;;;17.20;99.90;;;;;;6211059;23;20060;-84
2023/08/06 05:17:45;;;;;;;15.52;14.05;;;17.20;99.90;;;;;;6212051;23;20035;-84
2023/08/06 05:20:11;;;;;;;15.50;13.85;;;17.30;99.90;;;;;;6185190;23;20427;-82
2023/08/06 05:22:36;;;;;;;15.52;13.90;;;17.30;99.90;;;;;;6211982;23;20004;-83
2023/08/06 05:25:02;;;;;;;14.25;12.88;;;17.30;99.90;;;;;;6211470;23;20001;-83
2023/08/06 05:27:28;;;;;;;14.73;12.95;;;17.40;99.90;;;;;;6211741;23;20008;-83
2023/08/06 05:29:58;;;;;;;15.77;14.23;;;17.40;99.90;;;;;;6211385;23;20300;-84
2023/08/06 05:32:24;;;;;;;16.52;14.70;;;17.50;99.90;;;;;;6211426;23;20490;-83
2023/08/06 05:34:49;;;;;;;15.10;13.50;;;17.50;99.90;;;;;;6185271;23;20047;-83
2023/08/06 05:37:15;;;;;;;14.55;12.98;;;17.50;99.90;;;;;;6211091;23;20062;-84
2023/08/06 05:39:41;;;;;;;17.40;12.70;;;17.60;99.90;;;;;;6212629;23;19997;-84
2023/08/06 05:42:06;;;;;;;13.85;12.43;;;17.60;99.90;;;;;;6213584;23;20425;-84
2023/08/06 05:44:32;;;;;;;14.40;13.07;;;17.70;99.90;;;;;;6212997;23;20024;-84
2023/08/06 05:46:57;;;;;;;12.45;11.25;;;17.80;99.90;;;;;;6213565;23;20001;-84
2023/08/06 05:49:23;;;;;;;13.85;12.45;;;17.80;99.90;;;;;;6213288;23;20051;-84
2023/08/06 05:51:49;;;;;;;14.00;12.60;;;17.80;99.90;;;;;;6213612;23;20072;-84
2023/08/06 05:54:14;;;;;;;12.48;11.18;;;17.80;99.90;;;;;;6212946;23;20457;-84
2023/08/06 05:56:40;;;;;;;14.50;13.07;;;17.80;99.90;;;;;;6213376;23;20001;-84
2023/08/06 05:59:05;;;;;;;14.88;13.57;;;17.80;99.90;;;;;;6212386;23;20009;-84
2023/08/06 06:01:31;;;;;;;13.77;12.45;;;17.80;99.90;;;;;;6213364;23;20001;-84
2023/08/06 06:03:56;;;;;;;15.18;13.63;;;17.70;99.90;;;;;;6212736;23;20299;-84
2023/08/06 06:06:22;;;;;;;15.13;13.52;;;17.80;99.90;;;;;;6185109;23;20005;-84
2023/08/06 06:08:47;;;;;;;19.95;16.02;;;17.70;99.90;;;;;;6213557;23;20036;-83
2023/08/06 06:11:13;;;;;;;16.90;15.18;;;17.70;99.90;;;;;;6213056;23;20019;-84
2023/08/06 06:13:39;;;;;;;17.40;14.57;;;17.70;99.90;;;;;;6212749;23;20032;-84
2023/08/06 06:16:05;;;;;;;15.35;13.82;;;17.70;99.90;;;;;;6212538;23;20008;-84
2023/08/06 06:18:30;;;;;;;16.58;14.98;;;17.70;99.90;;;;;;6213103;23;20059;-84
2023/08/06 06:20:56;;;;;;;19.15;17.30;;;17.70;99.90;;;;;;6213187;23;20422;-84
2023/08/06 06:23:22;;;;;;;16.67;14.95;;;17.70;99.90;;;;;;6213166;23;20422;-84
2023/08/06 06:25:49;;;;;;;18.08;16.23;;;17.80;99.90;;;;;;6213565;23;20008;-84
2023/08/06 06:28:15;;;;;;;16.80;15.13;;;17.80;99.90;;;;;;6212622;23;20027;-83
2023/08/06 06:30:42;;;;;;;16.80;15.10;;;17.80;99.90;;;;;;6214301;23;20004;-85
2023/08/06 06:33:07;;;;;;;17.52;15.85;;;17.90;99.90;;;;;;6212874;23;19992;-84
2023/08/06 06:35:33;;;;;;;18.83;15.85;;;18.00;99.90;;;;;;6212931;23;20013;-84
2023/08/06 06:37:59;;;;;;;17.38;15.70;;;18.00;99.90;;;;;;6213147;23;20035;-84
2023/08/06 06:40:25;;;;;;;18.88;17.00;;;18.00;99.90;;;;;;6212915;23;20005;-84
2023/08/06 06:42:51;;;;;;;20.63;18.52;;;18.00;99.90;;;;;;6186042;23;20330;-84
2023/08/06 06:45:16;;;;;;;18.10;16.20;;;17.90;99.90;;;;;;6212558;23;20000;-84
2023/08/06 06:47:42;;;;;;;18.85;16.40;;;17.90;99.90;;;;;;6213324;23;20007;-84
2023/08/06 06:50:08;;;;;;;19.05;17.08;;;17.80;99.90;;;;;;6212576;23;19997;-83
2023/08/06 06:52:34;;;;;;;19.70;17.55;;;17.80;99.90;;;;;;6185675;23;20012;-84
2023/08/06 06:54:59;;;;;;;18.30;16.40;;;17.70;99.90;;;;;;6209557;23;20409;-84
2023/08/06 06:57:25;;;;;;;20.98;18.13;;;17.70;99.90;;;;;;6210200;23;20012;-83
2023/08/06 06:59:50;;;;;;;19.58;17.55;;;17.70;99.90;;;;;;6213036;23;20001;-83
2023/08/06 07:02:16;;;;;;;20.05;17.83;;;17.70;99.90;;;;;;6212207;23;20058;-84
2023/08/06 07:04:42;;;;;;;21.02;18.88;;;17.70;99.90;;;;;;6213033;23;20076;-84
2023/08/06 07:07:07;;;;;;;17.85;16.15;;;17.70;99.90;;;;;;6212400;23;20005;-84
2023/08/06 07:09:33;;;;;;;19.85;17.77;;;17.70;99.90;;;;;;6212888;23;20009;-83
2023/08/06 07:11:58;;;;;;;23.88;18.25;;;17.70;99.90;;;;;;6212109;23;20008;-83
2023/08/06 07:14:25;;;;;;;20.98;17.52;;;17.70;99.90;;;;;;6212543;23;20003;-84
2023/08/06 07:16:51;;;;;;;19.75;17.70;;;17.80;99.90;;;;;;6211223;23;20171;-84
2023/08/06 07:19:17;;;;;;;20.52;18.58;;;17.80;99.90;;;;;;6212520;23;20415;-84
2023/08/06 07:21:42;;;;;;;22.00;19.75;;;17.70;99.90;;;;;;6213040;23;20000;-84
2023/08/06 07:24:08;;;;;;;18.20;16.50;;;17.70;99.90;;;;;;6212724;23;20000;-86
2023/08/06 07:26:33;;;;;;;18.20;16.50;;;17.70;99.90;;;;;;6212012;23;20100;-78
2023/08/06 07:28:59;;;;;;;18.45;16.55;;;17.70;99.90;;;;;;6212251;23;20028;-77
2023/08/06 07:31:25;;;;;;;18.00;16.15;;;17.60;99.90;;;;;;6211978;23;20080;-77
2023/08/06 07:33:51;;;;;;;18.67;16.73;;;17.50;99.90;;;;;;6212526;23;20028;-77
2023/08/06 07:36:16;;;;;;;18.73;16.88;;;17.50;99.90;;;;;;6211875;23;20334;-77
2023/08/06 07:38:42;;;;;;;16.38;14.77;;;17.50;99.90;;;;;;6212849;23;20000;-77
2023/08/06 07:41:09;;;;;;;18.23;16.35;;;17.60;99.90;;;;;;6211402;23;20437;-78
2023/08/06 07:43:35;;;;;;;16.50;14.80;;;17.60;99.90;;;;;;6212426;23;20029;-78
2023/08/06 07:46:01;;;;;;;17.75;16.05;;;17.60;99.90;;;;;;6212329;23;20363;-78
2023/08/06 07:48:27;;;;;;;17.77;16.13;;;17.60;99.90;;;;;;6212429;23;20039;-77
2023/08/06 07:50:57;;;;;;;14.60;13.20;;;17.60;99.90;;;;;;6212175;23;20008;-77
2023/08/06 07:53:23;;;;;;;16.63;15.02;;;17.60;99.90;;;;;;6211706;23;20086;-77
2023/08/06 07:55:53;;;;;;;18.00;16.23;;;17.60;99.90;;;;;;6212138;23;20007;-77
2023/08/06 07:58:20;;;;;;;19.20;17.02;;;17.70;99.90;;;;;;6211805;23;20451;-77
2023/08/06 08:00:46;;;;;;;16.40;14.90;;;17.80;99.90;;;;;;6212401;23;20079;-77
2023/08/06 08:03:15;;;;;;;18.20;16.40;;;17.80;99.90;;;;;;6211755;23;20009;-77
2023/08/06 08:05:42;;;;;;;18.95;17.05;;;17.80;99.90;;;;;;6212332;23;20099;-77
2023/08/06 08:08:08;;;;;;;17.65;15.23;;;17.80;99.90;;;;;;6211818;23;20430;-77
2023/08/06 08:10:34;;;;;;;17.25;15.55;;;17.90;99.90;;;;;;6211374;23;20047;-77
2023/08/06 08:13:04;;;;;;;18.33;16.60;;;18.10;99.90;;;;;;6212248;23;20330;-77
2023/08/06 08:15:30;;;;;;;16.40;14.80;;;18.10;99.90;;;;;;6211987;23;20075;-78
2023/08/06 08:17:56;;;;;;;18.27;16.05;;;18.10;99.90;;;;;;6211973;23;20365;-77
2023/08/06 08:20:21;;;;;;;17.23;15.63;;;18.30;99.90;;;;;;6211796;23;20011;-77
2023/08/06 08:22:47;;;;;;;16.65;15.15;;;18.20;99.90;;;;;;6212091;23;20359;-77
2023/08/06 08:25:13;;;;;;;16.95;15.18;;;18.30;99.90;;;;;;6211169;23;20051;-77
2023/08/06 08:27:39;;;;;;;16.48;14.80;;;18.40;99.90;;;;;;6212073;23;20084;-77
2023/08/06 08:30:05;;;;;;;17.33;15.50;;;18.40;99.90;;;;;;6211574;23;20005;-77
2023/08/06 08:32:31;;;;;;;16.23;14.77;;;18.50;99.90;;;;;;6212075;23;20001;-77
2023/08/06 08:34:56;;;;;;;15.77;14.27;;;18.50;99.90;;;;;;6211948;23;20054;-77
2023/08/06 08:37:23;;;;;;;15.90;14.40;;;18.60;99.90;;;;;;6211251;23;20004;-77
2023/08/06 08:39:49;;;;;;;15.00;12.93;;;18.70;99.90;;;;;;6211949;23;20037;-77
2023/08/06 08:42:15;;;;;;;15.00;13.48;;;18.90;99.90;;;;;;6211598;23;20032;-77
2023/08/06 08:44:43;;;;;;;14.43;13.00;;;19.00;99.90;;;;;;6211663;23;20004;-77
2023/08/06 08:47:09;;;;;;;12.18;11.07;;;19.10;99.90;;;;;;6211670;23;20003;-78
2023/08/06 08:49:36;;;;;;;13.02;11.73;;;19.10;99.90;;;;;;6212042;23;20001;-78
2023/08/06 08:52:06;;;;;;;13.77;12.40;;;19.20;99.90;;;;;;6211167;23;20385;-78
2023/08/06 08:54:33;;;;;;;12.10;11.00;;;19.20;99.90;;;;;;6211677;23;20016;-77
2023/08/06 08:56:59;;;;;;;11.95;10.80;;;19.40;99.90;;;;;;6211888;23;19997;-77
2023/08/06 08:59:25;;;;;;;12.77;11.63;;;19.40;99.90;;;;;;6184669;23;20012;-78
2023/08/06 09:01:51;;;;;;;11.95;10.77;;;19.60;99.90;;;;;;6211733;23;20004;-77
2023/08/06 09:04:18;;;;;;;11.48;10.38;;;19.70;99.90;;;;;;6210948;23;20419;-78
2023/08/06 09:06:48;;;;;;;12.20;11.10;;;19.80;99.90;;;;;;6211597;23;20009;-77
2023/08/06 09:09:21;;;;;;;12.10;10.98;;;19.90;99.90;;;;;;6211557;23;20311;-78
2023/08/06 09:11:49;;;;;;;11.00;9.95;;;20.00;99.90;;;;;;6211951;23;20059;-78
2023/08/06 09:14:15;;;;;;;10.27;9.43;;;20.00;99.90;;;;;;6184840;23;20022;-78
2023/08/06 09:16:40;;;;;;;10.25;9.32;;;20.00;99.90;;;;;;6213679;23;20032;-78
2023/08/06 09:19:12;;;;;;;11.05;10.05;;;20.00;99.90;;;;;;6213033;23;20032;-76
2023/08/06 09:21:41;;;;;;;11.15;10.15;;;20.00;99.90;;;;;;6213156;23;20001;-79
2023/08/06 09:24:10;;;;;;;10.40;9.43;;;20.00;99.90;;;;;;6213124;23;20398;-78
2023/08/06 09:26:44;;;;;;;9.77;8.98;;;20.00;99.90;;;;;;6213421;23;20062;-77
2023/08/06 09:29:11;;;;;;;9.43;8.63;;;19.80;99.90;;;;;;6213230;23;20011;-78
2023/08/06 09:31:42;;;;;;;8.15;7.45;;;19.70;99.90;;;;;;6213429;23;20008;-79
2023/08/06 09:34:23;;;;;;;8.48;7.68;;;19.50;99.90;;;;;;6213224;23;20008;-78
2023/08/06 09:36:51;;;;;;;7.20;6.55;;;19.20;99.90;;;;;;6213186;23;20047;-77
2023/08/06 09:39:27;;;;;;;8.18;7.47;;;19.00;99.90;;;;;;6212847;23;20079;-78
2023/08/06 09:41:59;;;;;;;8.00;7.40;;;18.80;99.90;;;;;;6213639;23;20023;-78
2023/08/06 09:44:27;;;;;;;8.57;7.75;;;18.60;99.90;;;;;;6213018;23;20004;-78
2023/08/06 09:46:55;;;;;;;4.90;4.50;;;18.50;99.90;;;;;;6213652;23;20035;-77
2023/08/06 09:49:26;;;;;;;7.25;4.10;;;18.40;99.90;;;;;;6213046;23;20075;-77
2023/08/06 09:51:55;;;;;;;2.53;2.33;;;18.30;99.90;;;;;;6213003;23;20009;-77
2023/08/06 09:54:22;;;;;;;2.60;2.20;;;18.20;99.90;;;;;;6212825;23;20023;-77
2023/08/06 09:56:48;;;;;;;3.08;1.67;;;18.10;99.90;;;;;;6213668;23;20350;-78
2023/08/06 09:59:15;;;;;;;2.20;1.73;;;17.90;99.90;;;;;;6212865;23;20008;-77
2023/08/06 10:01:41;;;;;;;2.20;1.20;;;17.80;99.90;;;;;;6213559;23;20001;-77
2023/08/06 10:04:08;;;;;;;1.52;1.23;;;17.70;99.90;;;;;;6213057;23;20470;-77
2023/08/06 10:06:37;;;;;;;2.42;0.90;;;17.60;99.90;;;;;;6212787;23;20005;-78
2023/08/06 10:09:04;;;;;;;1.83;0.93;;;17.50;99.90;;;;;;6212835;23;20005;-78
2023/08/06 10:11:30;;;;;;;1.10;0.70;;;17.40;99.90;;;;;;6213192;23;20490;-78
2023/08/06 10:14:10;;;;;;;1.73;0.60;;;17.30;99.90;;;;;;6212991;23;20068;-78
2023/08/06 10:16:36;;;;;;;0.85;0.68;;;17.10;99.90;;;;;;6213124;23;19997;-78
2023/08/06 10:19:05;;;;;;;1.95;0.50;;;17.10;99.90;;;;;;6211061;23;20005;-78
2023/08/06 10:21:33;;;;;;;1.70;0.63;;;17.00;99.90;;;;;;6212855;23;20028;-77
2023/08/06 10:23:59;;;;;;;0.90;0.63;;;16.90;99.90;;;;;;6212971;23;20000;-77
2023/08/06 10:26:29;;;;;;;2.80;1.55;;;16.80;99.90;;;;;;6212443;23;20076;-77
2023/08/06 10:28:56;;;;;;;1.50;0.80;;;16.80;99.90;;;;;;6212851;23;20339;-77
2023/08/06 10:31:55;;;;;;;1.90;1.23;;;16.70;99.90;;;;;;6212155;23;20338;-76
2023/08/06 10:34:20;;;;;;;1.33;0.90;;;16.70;99.90;;;;;;6210585;23;20008;-77
2023/08/06 10:36:46;;;;;;;1.70;0.98;;;16.50;99.90;;;;;;6186178;23;20116;-75
2023/08/06 10:39:15;;;;;;;1.65;0.80;;;16.50;99.90;;;;;;6212640;23;20009;-77
2023/08/06 10:41:43;;;;;;;1.35;0.90;;;16.40;99.90;;;;;;6212462;23;20381;-77
2023/08/06 10:44:10;;;;;;;1.50;1.00;;;16.30;99.90;;;;;;6212559;23;20055;-77
2023/08/06 10:46:36;;;;;;;1.98;0.98;;;16.30;99.90;;;;;;6212197;23;20079;-77
2023/08/06 10:49:03;;;;;;;1.90;1.67;;;16.20;99.90;;;;;;6211840;23;20007;-77
2023/08/06 10:51:29;;;;;;;1.38;1.27;;;16.20;99.90;;;;;;6212369;23;20457;-77
2023/08/06 10:53:54;;;;;;;1.70;1.38;;;16.10;99.90;;;;;;6212593;23;20013;-77
2023/08/06 10:56:25;;;;;;;2.75;1.42;;;16.10;99.90;;;;;;6211929;23;20375;-77
2023/08/06 10:58:56;;;;;;;2.00;1.77;;;16.20;99.90;;;;;;6213026;23;20048;-77
2023/08/06 11:01:22;;;;;;;2.00;1.88;;;16.10;99.90;;;;;;6212102;23;20004;-78
2023/08/06 11:03:50;;;;;;;2.47;1.83;;;16.20;99.90;;;;;;6185264;23;20076;-77
2023/08/06 11:06:22;;;;;;;3.38;2.15;;;16.20;99.90;;;;;;6185400;23;20082;-77
2023/08/06 11:08:53;;;;;;;3.08;2.03;;;16.20;99.90;;;;;;6212430;23;20007;-78
2023/08/06 11:11:20;;;;;;;2.83;2.50;;;16.30;99.90;;;;;;6211957;23;20005;-77
2023/08/06 11:13:47;;;;;;;2.08;1.88;;;16.30;99.90;;;;;;6212115;23;20001;-77
2023/08/06 11:16:18;;;;;;;3.47;1.88;;;16.40;99.90;;;;;;6184201;23;20016;-77
2023/08/06 11:18:44;;;;;;;2.10;1.90;;;16.50;99.90;;;;;;6184246;23;20016;-77
2023/08/06 11:21:11;;;;;;;2.50;1.90;;;16.50;99.90;;;;;;6211203;23;20051;-78
2023/08/06 11:23:37;;;;;;;3.10;1.77;;;16.60;99.90;;;;;;6212277;23;20422;-77
2023/08/06 11:26:03;;;;;;;2.25;1.67;;;16.60;99.90;;;;;;6211597;23;19997;-78
2023/08/06 11:28:29;;;;;;;2.00;1.80;;;16.70;99.90;;;;;;6212041;23;20001;-77
2023/08/06 11:31:01;;;;;;;2.70;2.30;;;16.70;99.90;;;;;;6185301;23;20011;-78
2023/08/06 11:33:27;;;;;;;3.53;2.70;;;16.70;99.90;;;;;;6211299;23;20005;-77
2023/08/06 11:35:54;;;;;;;6.88;2.80;;;16.70;99.90;;;;;;6211864;23;20012;-77
2023/08/06 11:38:20;;;;;;;3.72;3.05;;;16.70;99.90;;;;;;6211290;23;20005;-76
2023/08/06 11:40:46;;;;;;;4.80;4.10;;;16.70;99.90;;;;;;6211654;23;20000;-77
2023/08/06 11:43:13;;;;;;;7.20;4.03;;;16.70;99.90;;;;;;6211534;23;20028;-77
2023/08/06 11:45:39;;;;;;;4.47;3.90;;;16.70;99.90;;;;;;6211741;23;20015;-78
2023/08/06 11:48:06;;;;;;;5.68;4.47;;;16.70;99.90;;;;;;6210499;23;20072;-77
2023/08/06 11:50:36;;;;;;;6.05;4.80;;;16.70;99.90;;;;;;6212095;23;20004;-77
2023/08/06 11:53:01;;;;;;;6.68;5.55;;;16.70;99.90;;;;;;6211642;23;20060;-77
2023/08/06 11:55:28;;;;;;;6.90;5.90;;;16.70;99.90;;;;;;6212098;23;20370;-77
2023/08/06 11:57:54;;;;;;;6.82;5.68;;;16.70;99.90;;;;;;6211708;23;20096;-76
2023/08/06 12:00:22;;;;;;;6.57;5.70;;;16.70;99.90;;;;;;6209502;23;20001;-76
2023/08/06 12:02:50;;;;;;;11.52;6.50;;;16.70;99.90;;;;;;6211675;23;20004;-77
2023/08/06 12:05:17;;;;;;;8.60;6.57;;;16.60;99.90;;;;;;6211462;23;20397;-77
2023/08/06 12:07:48;;;;;;;7.53;6.38;;;16.60;99.90;;;;;;6211495;23;20032;-77
2023/08/06 12:10:14;;;;;;;6.90;5.70;;;16.60;99.90;;;;;;6185914;23;20000;-76
2023/08/06 12:12:40;;;;;;;8.15;5.70;;;16.60;99.90;;;;;;6211123;23;20007;-77
2023/08/06 12:15:07;;;;;;;5.82;5.22;;;16.60;99.90;;;;;;6210656;23;19997;-77
2023/08/06 12:17:33;;;;;;;6.68;5.15;;;16.60;99.90;;;;;;6211410;23;20011;-77
2023/08/06 12:19:59;;;;;;;6.28;4.85;;;16.50;99.90;;;;;;6212043;23;20318;-77
2023/08/06 12:22:25;;;;;;;7.57;4.88;;;16.50;99.90;;;;;;6211273;23;20007;-76
2023/08/06 12:24:50;;;;;;;6.75;5.22;;;16.40;99.90;;;;;;6211864;23;20051;-77
2023/08/06 12:27:16;;;;;;;7.97;5.47;;;16.40;99.90;;;;;;6211045;23;20091;-77
2023/08/06 12:29:44;;;;;;;7.18;4.50;;;16.40;99.90;;;;;;6211083;23;20399;-76
2023/08/06 12:32:10;;;;;;;5.35;4.45;;;16.30;99.90;;;;;;6211174;23;20004;-77